createdAt,value
2022-10-31T00:00:05.960Z,8.40
2022-10-31T00:02:35.913Z,8.10
2022-10-31T00:05:05.852Z,8.63
2022-10-31T00:07:35.577Z,8.43
2022-10-31T00:10:09.264Z,8.55
2022-10-31T00:12:39.044Z,9.52
2022-10-31T00:15:09.344Z,8.77
2022-10-31T00:17:39.820Z,10.00
2022-10-31T00:20:11.109Z,9.80
2022-10-31T00:22:40.846Z,9.45
2022-10-31T00:25:13.353Z,9.60
2022-10-31T00:27:43.112Z,9.73
2022-10-31T00:30:13.853Z,9.98
2022-10-31T00:32:43.614Z,10.50
2022-10-31T00:35:13.619Z,10.27
2022-10-31T00:37:43.335Z,10.38
2022-10-31T00:40:16.135Z,9.50
2022-10-31T00:42:45.912Z,10.95
2022-10-31T00:45:15.918Z,11.13
2022-10-31T00:47:45.645Z,11.10
2022-10-31T00:50:15.361Z,10.80
2022-10-31T00:52:45.073Z,10.15
2022-10-31T00:55:17.587Z,11.23
2022-10-31T00:57:49.995Z,11.02
2022-10-31T01:00:20.312Z,9.93
2022-10-31T01:02:50.362Z,10.63
2022-10-31T01:05:20.418Z,10.27
2022-10-31T01:07:50.153Z,11.40
2022-10-31T01:10:22.669Z,10.88
2022-10-31T01:12:53.411Z,11.30
2022-10-31T01:15:25.884Z,10.65
2022-10-31T01:17:56.058Z,10.38
2022-10-31T01:20:25.929Z,11.43
2022-10-31T01:22:55.647Z,10.93
2022-10-31T01:25:28.068Z,11.10
2022-10-31T01:27:58.014Z,12.43
2022-10-31T01:30:28.086Z,11.68
2022-10-31T01:32:58.181Z,12.48
2022-10-31T01:35:28.260Z,12.70
2022-10-31T01:37:58.401Z,12.32
2022-10-31T01:40:33.029Z,12.00
2022-10-31T01:43:02.913Z,11.57
2022-10-31T01:45:33.161Z,11.70
2022-10-31T01:48:02.976Z,10.27
2022-10-31T01:50:38.783Z,11.00
2022-10-31T01:53:13.382Z,10.55
2022-10-31T01:55:49.963Z,9.90
2022-10-31T01:58:25.207Z,10.82
2022-10-31T02:01:03.273Z,10.98
2022-10-31T02:03:37.177Z,12.32
2022-10-31T02:06:10.039Z,11.45
2022-10-31T02:08:41.003Z,11.73
2022-10-31T02:11:14.185Z,12.00
2022-10-31T02:13:44.062Z,11.30
2022-10-31T02:16:14.150Z,11.63
2022-10-31T02:18:43.956Z,10.48
2022-10-31T02:21:19.686Z,9.63
2022-10-31T02:24:16.839Z,9.68
2022-10-31T02:27:02.372Z,10.38
2022-10-31T02:30:00.136Z,9.73
2022-10-31T02:32:56.770Z,11.35
2022-10-31T02:35:51.251Z,9.43
2022-10-31T02:38:29.793Z,10.00
2022-10-31T02:41:08.132Z,9.60
2022-10-31T02:43:44.149Z,9.95
2022-10-31T02:46:19.494Z,10.18
2022-10-31T02:48:53.936Z,9.38
2022-10-31T02:53:53.405Z,9.18
2022-10-31T02:56:23.743Z,10.18
2022-10-31T02:58:57.252Z,9.57
2022-10-31T03:01:48.051Z,9.77
2022-10-31T03:04:40.373Z,9.68
2022-10-31T03:07:20.606Z,9.27
2022-10-31T03:09:56.655Z,9.52
2022-10-31T03:12:32.498Z,9.75
2022-10-31T03:15:15.410Z,9.48
2022-10-31T03:17:54.599Z,9.90
2022-10-31T03:20:31.824Z,9.60
2022-10-31T03:23:04.639Z,9.18
2022-10-31T03:25:36.713Z,8.82
2022-10-31T03:28:09.383Z,9.90
2022-10-31T03:30:43.684Z,9.40
2022-10-31T03:33:18.088Z,9.10
2022-10-31T03:35:54.658Z,9.57
2022-10-31T03:38:25.313Z,9.20
2022-10-31T03:40:58.278Z,8.80
2022-10-31T03:43:33.098Z,8.80
2022-10-31T03:46:03.228Z,9.23
2022-10-31T03:48:33.103Z,8.63
2022-10-31T03:51:11.370Z,9.05
2022-10-31T03:53:44.924Z,8.85
2022-10-31T03:56:19.737Z,8.77
2022-10-31T03:58:52.460Z,8.98
2022-10-31T04:01:25.544Z,8.70
2022-10-31T04:03:56.711Z,9.55
2022-10-31T04:06:30.135Z,8.82
2022-10-31T04:09:04.194Z,8.73
2022-10-31T04:11:38.262Z,9.13
2022-10-31T04:14:09.433Z,10.00
2022-10-31T04:16:39.510Z,8.77
2022-10-31T04:19:09.296Z,8.68
2022-10-31T04:21:44.248Z,9.40
2022-10-31T04:24:14.481Z,9.02
2022-10-31T04:26:44.265Z,8.35
2022-10-31T04:29:14.013Z,8.85
2022-10-31T04:31:43.720Z,8.85
2022-10-31T04:34:13.467Z,8.73
2022-10-31T04:36:45.774Z,8.55
2022-10-31T04:39:15.509Z,8.90
2022-10-31T04:41:45.252Z,8.70
2022-10-31T04:44:14.981Z,9.85
2022-10-31T04:46:44.721Z,9.18
2022-10-31T04:49:14.498Z,8.65
2022-10-31T04:51:46.805Z,9.10
2022-10-31T04:54:16.555Z,8.90
2022-10-31T04:56:46.286Z,8.30
2022-10-31T04:59:16.005Z,9.65
2022-10-31T05:01:45.937Z,9.30
2022-10-31T05:04:15.721Z,8.68
2022-10-31T05:06:48.225Z,8.80
2022-10-31T05:09:18.009Z,8.85
2022-10-31T05:11:47.721Z,8.77
2022-10-31T05:14:17.495Z,9.32
2022-10-31T05:16:47.246Z,8.88
2022-10-31T05:19:16.985Z,8.57
2022-10-31T05:21:49.287Z,9.00
2022-10-31T05:24:19.084Z,8.75
2022-10-31T05:26:48.823Z,8.77
2022-10-31T05:29:18.544Z,8.68
2022-10-31T05:31:48.263Z,9.35
2022-10-31T05:34:17.980Z,9.23
2022-10-31T05:36:50.291Z,8.75
2022-10-31T05:39:20.027Z,9.18
2022-10-31T05:41:49.728Z,9.95
2022-10-31T05:44:19.457Z,8.75
2022-10-31T05:46:50.244Z,9.43
2022-10-31T05:49:20.108Z,9.35
2022-10-31T05:51:52.450Z,8.68
2022-10-31T05:54:22.154Z,9.00
2022-10-31T05:56:51.883Z,8.80
2022-10-31T05:59:21.591Z,8.93
2022-10-31T06:01:51.371Z,8.48
2022-10-31T06:04:21.179Z,8.77
2022-10-31T06:06:53.653Z,9.13
2022-10-31T06:09:23.418Z,9.82
2022-10-31T06:11:53.187Z,8.50
2022-10-31T06:14:22.902Z,8.25
2022-10-31T06:16:52.611Z,8.32
2022-10-31T06:19:22.309Z,8.70
2022-10-31T06:21:54.606Z,9.05
2022-10-31T06:24:24.412Z,9.15
2022-10-31T06:26:54.149Z,9.18
2022-10-31T06:29:23.947Z,9.52
2022-10-31T06:31:55.433Z,8.60
2022-10-31T06:34:25.155Z,9.07
2022-10-31T06:36:57.484Z,9.10
2022-10-31T06:39:27.175Z,10.40
2022-10-31T06:41:56.916Z,12.20
2022-10-31T06:44:26.716Z,10.07
2022-10-31T06:46:56.531Z,8.43
2022-10-31T06:49:26.270Z,7.95
2022-10-31T06:51:58.572Z,7.47
2022-10-31T06:54:28.358Z,6.63
2022-10-31T06:56:58.066Z,7.53
2022-10-31T06:59:27.818Z,7.03
2022-10-31T07:01:57.701Z,7.88
2022-10-31T07:04:28.038Z,7.20
2022-10-31T07:07:00.477Z,7.40
2022-10-31T07:09:30.212Z,7.25
2022-10-31T07:11:59.915Z,7.65
2022-10-31T07:14:29.663Z,8.13
2022-10-31T07:16:59.401Z,7.93
2022-10-31T07:19:31.841Z,8.38
2022-10-31T07:22:04.131Z,7.40
2022-10-31T07:24:34.059Z,7.38
2022-10-31T07:27:03.782Z,7.13
2022-10-31T07:29:33.523Z,7.20
2022-10-31T07:32:03.242Z,6.78
2022-10-31T07:34:32.973Z,7.78
2022-10-31T07:37:05.263Z,7.65
2022-10-31T07:39:35.029Z,7.63
2022-10-31T07:42:04.753Z,7.72
2022-10-31T07:44:34.460Z,7.50
2022-10-31T07:47:04.174Z,7.50
2022-10-31T07:49:33.887Z,7.50
2022-10-31T07:52:06.349Z,7.10
2022-10-31T07:54:36.081Z,7.68
2022-10-31T07:57:06.092Z,7.38
2022-10-31T07:59:35.833Z,7.47
2022-10-31T08:02:05.560Z,7.82
2022-10-31T08:04:35.345Z,7.05
2022-10-31T08:07:07.779Z,7.38
2022-10-31T08:09:37.571Z,6.50
2022-10-31T08:12:08.673Z,6.57
2022-10-31T08:14:38.407Z,6.95
2022-10-31T08:17:08.147Z,6.85
2022-10-31T08:19:37.887Z,10.13
2022-10-31T08:22:10.181Z,12.63
2022-10-31T08:27:29.539Z,6.95
2022-10-31T08:29:59.316Z,7.95
2022-10-31T08:32:29.039Z,7.07
2022-10-31T08:34:59.736Z,6.78
2022-10-31T08:37:32.046Z,6.90
2022-10-31T08:40:01.777Z,7.47
2022-10-31T08:42:31.492Z,7.15
2022-10-31T08:45:01.206Z,7.97
2022-10-31T08:47:31.425Z,6.95
2022-10-31T08:50:01.131Z,7.88
2022-10-31T08:52:58.840Z,7.75
2022-10-31T08:55:23.434Z,7.80
2022-10-31T08:57:59.733Z,7.05
2022-10-31T09:00:30.038Z,8.38
2022-10-31T09:03:00.719Z,8.15
2022-10-31T09:05:31.126Z,7.70
2022-10-31T09:08:05.878Z,7.72
2022-10-31T09:10:37.378Z,7.88
2022-10-31T09:13:09.084Z,7.15
2022-10-31T09:15:40.683Z,7.60
2022-10-31T09:18:11.493Z,7.15
2022-10-31T09:20:42.357Z,7.20
2022-10-31T09:23:17.582Z,7.20
2022-10-31T09:25:50.638Z,6.53
2022-10-31T09:28:22.817Z,7.07
2022-10-31T09:30:54.772Z,7.05
2022-10-31T09:33:26.090Z,6.60
2022-10-31T09:35:55.797Z,6.88
2022-10-31T09:38:28.127Z,6.28
2022-10-31T09:41:04.984Z,6.18
2022-10-31T09:43:45.081Z,7.05
2022-10-31T09:46:22.504Z,5.80
2022-10-31T09:49:02.857Z,6.53
2022-10-31T09:51:35.511Z,6.50
2022-10-31T09:54:14.366Z,5.93
2022-10-31T09:56:44.178Z,6.55
2022-10-31T09:59:27.969Z,6.47
2022-10-31T10:02:01.332Z,6.40
2022-10-31T10:04:40.348Z,6.27
2022-10-31T10:07:17.682Z,6.32
2022-10-31T10:09:50.095Z,6.82
2022-10-31T10:12:27.755Z,5.95
2022-10-31T10:15:26.643Z,6.07
2022-10-31T10:18:09.265Z,6.13
2022-10-31T10:20:45.079Z,6.35
2022-10-31T10:23:32.476Z,6.57
2022-10-31T10:26:13.907Z,6.20
2022-10-31T10:28:48.233Z,6.57
2022-10-31T10:34:02.449Z,7.13
2022-10-31T10:36:39.817Z,6.47
2022-10-31T10:39:17.834Z,6.03
2022-10-31T10:42:05.221Z,6.35
2022-10-31T10:44:47.437Z,6.25
2022-10-31T10:47:29.661Z,6.97
2022-10-31T10:49:59.671Z,6.50
2022-10-31T10:52:43.572Z,6.70
2022-10-31T10:55:27.013Z,6.45
2022-10-31T10:58:04.509Z,6.20
2022-10-31T11:00:38.012Z,5.68
2022-10-31T11:03:08.358Z,5.93
2022-10-31T11:05:43.357Z,6.00
2022-10-31T11:08:13.160Z,8.95
2022-10-31T11:10:43.276Z,6.50
2022-10-31T11:13:27.506Z,6.18
2022-10-31T11:16:03.989Z,5.85
2022-10-31T11:18:36.176Z,6.72
2022-10-31T11:21:07.937Z,5.90
2022-10-31T11:23:37.717Z,5.88
2022-10-31T11:26:10.344Z,6.28
2022-10-31T11:28:42.733Z,6.15
2022-10-31T11:31:16.595Z,5.72
2022-10-31T11:33:51.471Z,6.30
2022-10-31T11:36:25.592Z,6.60
2022-10-31T11:38:56.458Z,6.07
2022-10-31T11:41:30.980Z,6.22
2022-10-31T11:44:14.705Z,6.70
2022-10-31T11:47:01.758Z,6.00
2022-10-31T11:49:34.621Z,6.15
2022-10-31T11:52:08.667Z,6.47
2022-10-31T11:54:45.827Z,6.22
2022-10-31T11:57:27.082Z,5.88
2022-10-31T12:00:00.991Z,5.90
2022-10-31T12:02:31.644Z,6.10
2022-10-31T12:05:12.376Z,6.07
2022-10-31T12:07:42.198Z,6.95
2022-10-31T12:10:15.541Z,6.63
2022-10-31T12:12:58.611Z,6.88
2022-10-31T12:15:40.805Z,7.07
2022-10-31T12:18:44.334Z,6.95
2022-10-31T12:21:28.003Z,6.68
2022-10-31T12:24:12.188Z,7.47
2022-10-31T12:26:53.046Z,6.88
2022-10-31T12:29:52.007Z,6.05
2022-10-31T12:32:35.113Z,6.85
2022-10-31T12:35:20.810Z,6.93
2022-10-31T12:38:02.945Z,7.47
2022-10-31T12:40:45.911Z,6.03
2022-10-31T12:43:33.891Z,6.70
2022-10-31T12:46:07.052Z,6.72
2022-10-31T12:49:05.275Z,7.05
2022-10-31T12:51:42.852Z,7.00
2022-10-31T12:54:29.325Z,7.10
2022-10-31T12:57:10.789Z,7.00
2022-10-31T12:59:45.052Z,6.28
2022-10-31T13:05:00.191Z,36.28
2022-10-31T13:07:35.751Z,6.47
2022-10-31T13:10:10.665Z,8.27
2022-10-31T13:12:41.046Z,7.63
2022-10-31T13:15:20.183Z,7.68
2022-10-31T13:17:53.440Z,7.68
2022-10-31T13:20:33.327Z,8.55
2022-10-31T13:23:36.779Z,8.05
2022-10-31T13:26:10.250Z,7.47
2022-10-31T13:28:44.580Z,7.28
2022-10-31T13:33:48.684Z,8.52
2022-10-31T13:36:28.311Z,7.90
2022-10-31T13:39:02.393Z,8.60
2022-10-31T13:41:43.943Z,7.65
2022-10-31T13:44:18.645Z,8.00
2022-10-31T13:46:49.286Z,7.90
2022-10-31T13:49:40.638Z,8.15
2022-10-31T13:52:27.007Z,8.93
2022-10-31T13:55:00.771Z,8.20
2022-10-31T13:57:35.924Z,7.97
2022-10-31T14:00:09.653Z,6.32
2022-10-31T14:02:40.351Z,6.30
2022-10-31T14:05:26.278Z,5.60
2022-10-31T14:08:00.655Z,6.05
2022-10-31T14:10:32.701Z,4.97
2022-10-31T14:13:10.751Z,5.25
2022-10-31T14:15:56.278Z,5.45
2022-10-31T14:18:28.846Z,6.07
2022-10-31T14:20:58.631Z,5.97
2022-10-31T14:23:48.324Z,7.28
2022-10-31T14:26:26.794Z,5.60
2022-10-31T14:29:01.280Z,5.90
2022-10-31T14:31:38.577Z,6.32
2022-10-31T14:34:23.329Z,6.00
2022-10-31T14:37:06.068Z,7.90
2022-10-31T14:39:44.553Z,8.05
2022-10-31T14:42:29.606Z,7.47
2022-10-31T14:45:17.335Z,7.85
2022-10-31T14:47:57.996Z,7.88
2022-10-31T14:50:38.767Z,8.05
2022-10-31T14:53:10.236Z,9.00
2022-10-31T14:55:47.302Z,8.38
2022-10-31T14:58:22.516Z,8.30
2022-10-31T15:00:55.099Z,8.07
2022-10-31T15:03:30.996Z,8.35
2022-10-31T15:06:04.185Z,8.85
2022-10-31T15:08:38.053Z,8.70
2022-10-31T15:11:17.281Z,8.32
2022-10-31T15:13:49.396Z,8.80
2022-10-31T15:16:22.970Z,8.30
2022-10-31T15:18:57.489Z,8.63
2022-10-31T15:24:01.277Z,8.70
2022-10-31T15:26:37.791Z,8.60
2022-10-31T15:29:09.167Z,9.20
2022-10-31T15:31:39.274Z,10.63
2022-10-31T15:34:19.553Z,10.75
2022-10-31T15:36:52.547Z,10.15
2022-10-31T15:39:22.722Z,13.10
2022-10-31T15:41:57.179Z,22.45
2022-10-31T15:47:01.118Z,10.15
2022-10-31T15:49:35.530Z,9.30
2022-10-31T15:52:13.710Z,9.02
2022-10-31T15:54:49.909Z,9.60
2022-10-31T15:57:22.606Z,10.75
2022-10-31T15:59:53.441Z,11.02
2022-10-31T16:02:25.464Z,10.85
2022-10-31T16:04:58.558Z,13.20
2022-10-31T16:07:29.242Z,21.45
2022-10-31T16:10:01.522Z,14.38
2022-10-31T16:12:40.420Z,12.25
2022-10-31T16:15:17.630Z,12.98
2022-10-31T16:17:50.832Z,15.55
2022-10-31T16:20:26.051Z,14.57
2022-10-31T16:22:58.042Z,13.75
2022-10-31T16:25:30.278Z,13.98
2022-10-31T16:28:07.493Z,13.95
2022-10-31T16:30:47.759Z,13.60
2022-10-31T16:33:30.247Z,14.73
2022-10-31T16:36:29.885Z,14.05
2022-10-31T16:38:51.873Z,14.45
2022-10-31T16:41:21.944Z,14.57
2022-10-31T16:43:55.270Z,14.50
2022-10-31T16:46:28.624Z,14.70
2022-10-31T16:48:58.790Z,15.27
2022-10-31T16:51:28.619Z,16.10
2022-10-31T16:53:58.817Z,14.52
2022-10-31T16:56:32.436Z,14.02
2022-10-31T16:59:08.228Z,14.02
2022-10-31T17:01:39.944Z,15.75
2022-10-31T17:04:11.024Z,15.57
2022-10-31T17:06:40.885Z,13.00
2022-10-31T17:09:10.759Z,13.88
2022-10-31T17:11:49.550Z,12.90
2022-10-31T17:14:22.749Z,14.10
2022-10-31T17:16:52.569Z,12.60
2022-10-31T17:19:23.417Z,11.70
2022-10-31T17:21:53.264Z,15.90
2022-10-31T17:24:23.060Z,14.57
2022-10-31T17:26:52.837Z,14.52
2022-10-31T17:29:25.195Z,14.80
2022-10-31T17:31:55.031Z,13.52
2022-10-31T17:34:24.813Z,12.07
2022-10-31T17:36:55.661Z,11.88
2022-10-31T17:39:26.102Z,11.65
2022-10-31T17:41:55.893Z,12.85
2022-10-31T17:44:28.387Z,12.63
2022-10-31T17:46:58.179Z,11.68
2022-10-31T17:49:27.972Z,12.93
2022-10-31T17:51:57.750Z,12.82
2022-10-31T17:54:27.532Z,13.98
2022-10-31T17:56:57.362Z,14.88
2022-10-31T17:59:30.278Z,14.75
2022-10-31T18:02:01.690Z,14.00
2022-10-31T18:04:31.539Z,14.60
2022-10-31T18:07:01.299Z,15.75
2022-10-31T18:09:31.198Z,16.08
2022-10-31T18:12:01.023Z,15.32
2022-10-31T18:14:33.583Z,15.50
2022-10-31T18:17:03.444Z,14.60
2022-10-31T18:19:33.450Z,13.82
2022-10-31T18:22:03.360Z,15.23
2022-10-31T18:24:33.166Z,14.63
2022-10-31T18:27:03.009Z,14.48
2022-10-31T18:29:35.392Z,14.88
2022-10-31T18:32:09.358Z,14.15
2022-10-31T18:34:39.761Z,14.50
2022-10-31T18:37:09.502Z,14.65
2022-10-31T18:39:39.254Z,16.60
2022-10-31T18:42:09.059Z,14.98
2022-10-31T18:44:41.446Z,13.85
2022-10-31T18:47:11.274Z,12.88
2022-10-31T18:49:43.312Z,14.02
2022-10-31T18:52:13.063Z,13.27
2022-10-31T18:54:42.802Z,13.05
2022-10-31T18:57:13.282Z,12.25
2022-10-31T18:59:45.671Z,12.82
2022-10-31T19:02:17.936Z,12.52
2022-10-31T19:04:47.801Z,12.52
2022-10-31T19:07:17.674Z,14.00
2022-10-31T19:09:47.452Z,13.82
2022-10-31T19:12:17.254Z,14.13
2022-10-31T19:14:49.640Z,11.80
2022-10-31T19:17:19.397Z,12.98
2022-10-31T19:19:49.225Z,13.07
2022-10-31T19:22:19.072Z,13.63
2022-10-31T19:24:48.821Z,13.57
2022-10-31T19:27:18.846Z,14.25
2022-10-31T19:29:51.231Z,13.85
2022-10-31T19:32:21.132Z,13.40
2022-10-31T19:34:50.884Z,14.57
2022-10-31T19:37:21.074Z,13.68
2022-10-31T19:39:50.973Z,13.88
2022-10-31T19:42:20.758Z,14.32
2022-10-31T19:44:53.203Z,13.05
2022-10-31T19:47:22.983Z,13.93
2022-10-31T19:49:53.077Z,13.82
2022-10-31T19:52:22.855Z,14.02
2022-10-31T19:54:52.695Z,13.52
2022-10-31T19:57:48.374Z,13.43
2022-10-31T20:00:16.511Z,14.40
2022-10-31T20:02:46.320Z,14.38
2022-10-31T20:05:16.189Z,13.45
2022-10-31T20:07:45.997Z,14.98
2022-10-31T20:10:15.854Z,14.30
2022-10-31T20:12:45.734Z,14.50
2022-10-31T20:15:18.565Z,13.52
2022-10-31T20:17:48.506Z,12.93
2022-10-31T20:20:18.620Z,12.13
2022-10-31T20:22:50.572Z,11.70
2022-10-31T20:25:20.597Z,11.55
2022-10-31T20:27:50.382Z,11.82
2022-10-31T20:30:23.022Z,12.27
2022-10-31T20:32:52.775Z,12.13
2022-10-31T20:35:22.559Z,12.13
2022-10-31T20:37:52.264Z,12.15
2022-10-31T20:40:22.789Z,11.85
2022-10-31T20:42:52.557Z,11.93
2022-10-31T20:45:24.898Z,11.27
2022-10-31T20:47:55.913Z,14.43
2022-10-31T20:50:26.859Z,13.00
2022-10-31T20:52:56.888Z,11.98
2022-10-31T20:55:26.849Z,11.95
2022-10-31T20:57:56.599Z,13.15
2022-10-31T21:00:28.975Z,13.18
2022-10-31T21:03:11.012Z,14.07
2022-10-31T21:05:40.891Z,13.10
2022-10-31T21:08:10.626Z,12.95
2022-10-31T21:10:42.060Z,13.20
2022-10-31T21:13:11.792Z,12.13
2022-10-31T21:15:44.337Z,12.45
2022-10-31T21:18:14.871Z,12.68
2022-10-31T21:20:45.839Z,12.02
2022-10-31T21:23:15.855Z,12.20
2022-10-31T21:25:45.872Z,12.88
2022-10-31T21:28:16.070Z,13.82
2022-10-31T21:30:51.559Z,12.23
2022-10-31T21:33:21.508Z,13.02
2022-10-31T21:35:54.764Z,13.00
2022-10-31T21:38:24.491Z,13.52
2022-10-31T21:41:00.468Z,13.02
2022-10-31T21:43:30.523Z,12.55
2022-10-31T21:46:08.855Z,13.38
2022-10-31T21:48:41.763Z,12.55
2022-10-31T21:51:12.626Z,12.95
2022-10-31T21:53:55.058Z,13.52
2022-10-31T21:56:25.609Z,13.98
2022-10-31T21:58:56.803Z,13.40
2022-10-31T22:01:31.265Z,13.13
2022-10-31T22:04:01.808Z,13.65
2022-10-31T22:06:32.660Z,13.52
2022-10-31T22:09:04.083Z,15.27
2022-10-31T22:11:34.376Z,15.75
2022-10-31T22:14:04.840Z,13.65
2022-10-31T22:16:38.750Z,15.48
2022-10-31T22:19:10.254Z,15.38
2022-10-31T22:21:43.227Z,15.52
2022-10-31T22:24:13.612Z,15.38
2022-10-31T22:26:44.039Z,14.75
2022-10-31T22:29:16.454Z,14.95
2022-10-31T22:31:53.488Z,14.77
2022-10-31T22:34:27.165Z,14.32
2022-10-31T22:36:57.904Z,14.70
2022-10-31T22:39:28.568Z,14.05
2022-10-31T22:41:58.336Z,14.05
2022-10-31T22:44:28.104Z,14.05
2022-10-31T22:47:00.507Z,14.82
2022-10-31T22:49:49.022Z,14.55
2022-10-31T22:52:37.488Z,14.68
2022-10-31T22:55:25.493Z,14.88
2022-10-31T22:58:14.240Z,14.18
2022-10-31T23:01:02.701Z,13.13
2022-10-31T23:03:54.622Z,14.63
2022-10-31T23:06:43.115Z,14.02
2022-10-31T23:09:16.624Z,13.50
2022-10-31T23:11:47.061Z,14.63
2022-10-31T23:14:19.468Z,15.38
2022-10-31T23:16:51.124Z,14.80
2022-10-31T23:19:26.379Z,15.00
2022-10-31T23:22:00.169Z,14.82
2022-10-31T23:24:34.542Z,14.10
2022-10-31T23:27:07.678Z,14.38
2022-10-31T23:29:39.496Z,14.50
2022-10-31T23:32:12.634Z,14.70
2022-10-31T23:34:45.158Z,14.57
2022-10-31T23:37:15.711Z,15.32
2022-10-31T23:39:45.536Z,14.90
2022-10-31T23:42:16.389Z,14.98
2022-10-31T23:44:46.263Z,14.60
2022-10-31T23:47:16.837Z,14.10
2022-10-31T23:49:49.578Z,14.93
2022-10-31T23:52:19.435Z,14.60
2022-10-31T23:54:49.248Z,14.38
2022-10-31T23:57:19.734Z,14.32
2022-10-31T23:59:49.986Z,15.73
